Terminal Aerodrome Forecast
Issued by NWS Caribou, ME

Home | Current Version | Previous Version | Text Only | Print | Product List | Glossary On
Versions: 1 2 3 4 5 6 7 8 9 10 11 12 13 14
000
FTUS41 KCAR 041120
TAFBGR
TAF
KBGR 041120Z 0412/0512 00000KT P6SM FEW100
      TEMPO 0412/0413 BCFG FEW015
     FM041600 19010G20KT P6SM SKC
     FM050500 24008KT P6SM BKN120 OVC200=

USA.gov is the U.S. government's official web portal to all federal, state and local government web resources and services.